createdAt,value
2017-05-02T00:00:38.194Z,0
2017-05-02T00:01:21.449Z,0
2017-05-02T00:02:01.865Z,0
2017-05-02T00:02:42.309Z,0
2017-05-02T00:03:22.806Z,0
2017-05-02T00:04:03.163Z,0
2017-05-02T00:04:45.292Z,0
2017-05-02T00:05:25.739Z,0
2017-05-02T00:06:06.724Z,0
2017-05-02T00:06:48.020Z,0
2017-05-02T00:07:29.306Z,0
2017-05-02T00:08:09.725Z,0
2017-05-02T00:08:50.172Z,0
2017-05-02T00:09:30.493Z,0
2017-05-02T00:10:11.034Z,0
2017-05-02T00:10:51.530Z,0
2017-05-02T00:11:31.898Z,0
2017-05-02T00:12:12.313Z,0
2017-05-02T00:12:54.190Z,0
2017-05-02T00:13:34.558Z,0
2017-05-02T00:14:14.995Z,0
2017-05-02T00:14:56.206Z,0
2017-05-02T00:15:36.599Z,0
2017-05-02T00:16:18.364Z,0
2017-05-02T00:16:58.781Z,0
2017-05-02T00:17:39.154Z,0
2017-05-02T00:18:21.460Z,0
2017-05-02T00:19:01.841Z,0
2017-05-02T00:19:42.316Z,0
2017-05-02T00:20:22.672Z,0
2017-05-02T00:21:03.161Z,0
2017-05-02T00:21:43.541Z,0
2017-05-02T00:22:23.960Z,0
2017-05-02T00:23:04.328Z,0
2017-05-02T00:23:44.744Z,0
2017-05-02T00:24:25.716Z,0
2017-05-02T00:25:07.061Z,0
2017-05-02T00:25:47.522Z,0
2017-05-02T00:26:27.915Z,0
2017-05-02T00:27:09.306Z,0
2017-05-02T00:27:50.255Z,0
2017-05-02T00:28:30.691Z,0
2017-05-02T00:29:11.103Z,0
2017-05-02T00:29:53.955Z,0
2017-05-02T00:30:34.398Z,0
2017-05-02T00:31:15.447Z,0
2017-05-02T00:31:55.856Z,0
2017-05-02T00:32:36.221Z,0
2017-05-02T00:33:17.253Z,0
2017-05-02T00:33:58.482Z,0
2017-05-02T00:34:38.961Z,0
2017-05-02T00:35:20.234Z,0
2017-05-02T00:36:00.720Z,0
2017-05-02T00:36:41.093Z,0
2017-05-02T00:37:21.481Z,0
2017-05-02T00:38:02.700Z,0
2017-05-02T00:38:44.654Z,0
2017-05-02T00:39:26.703Z,0
2017-05-02T00:40:07.123Z,0
2017-05-02T00:40:48.271Z,0
2017-05-02T00:41:30.298Z,0
2017-05-02T00:42:10.753Z,0
2017-05-02T00:42:51.147Z,0
2017-05-02T00:43:32.562Z,0
2017-05-02T00:44:13.579Z,0
2017-05-02T00:44:53.992Z,0
2017-05-02T00:45:34.378Z,0
2017-05-02T00:46:16.413Z,0
2017-05-02T00:46:57.583Z,0
2017-05-02T00:47:38.056Z,0
2017-05-02T00:48:18.448Z,0
2017-05-02T00:48:58.846Z,0
2017-05-02T00:49:39.320Z,0
2017-05-02T00:50:21.449Z,0
2017-05-02T00:51:01.844Z,0
2017-05-02T00:51:43.151Z,0
2017-05-02T00:52:23.586Z,0
2017-05-02T00:53:04.014Z,0
2017-05-02T00:53:44.386Z,0
2017-05-02T00:54:24.843Z,0
2017-05-02T00:55:05.972Z,0
2017-05-02T00:55:46.360Z,0
2017-05-02T00:56:27.264Z,0
2017-05-02T00:57:08.511Z,0
2017-05-02T00:57:48.933Z,0
2017-05-02T00:58:29.367Z,0
2017-05-02T00:59:09.832Z,0
2017-05-02T00:59:50.272Z,0
2017-05-02T01:00:30.646Z,0
2017-05-02T01:01:12.590Z,0
2017-05-02T01:01:53.807Z,0
2017-05-02T01:02:34.199Z,0
2017-05-02T01:03:14.655Z,0
2017-05-02T01:03:55.434Z,0
2017-05-02T01:04:36.642Z,0
2017-05-02T01:05:17.324Z,0
2017-05-02T01:05:57.811Z,0
2017-05-02T01:06:38.211Z,0
2017-05-02T01:07:19.335Z,0
2017-05-02T01:08:00.566Z,0
2017-05-02T01:08:41.000Z,0
2017-05-02T01:09:21.434Z,0
2017-05-02T01:10:02.601Z,0
2017-05-02T01:10:43.022Z,0
2017-05-02T01:11:23.443Z,0
2017-05-02T01:12:03.905Z,0
2017-05-02T01:12:44.370Z,0
2017-05-02T01:13:24.784Z,0
2017-05-02T01:14:05.145Z,0
2017-05-02T01:14:45.580Z,0
2017-05-02T01:15:26.658Z,0
2017-05-02T01:16:07.770Z,0
2017-05-02T01:16:48.938Z,0
2017-05-02T01:17:29.370Z,0
2017-05-02T01:18:10.448Z,0
2017-05-02T01:18:50.925Z,0
2017-05-02T01:19:31.318Z,0
2017-05-02T01:20:11.780Z,0
2017-05-02T01:20:52.622Z,0
2017-05-02T01:21:34.529Z,0
2017-05-02T01:22:14.924Z,0
2017-05-02T01:22:55.377Z,0
2017-05-02T01:23:35.737Z,0
2017-05-02T01:24:16.710Z,0
2017-05-02T01:24:57.631Z,0
2017-05-02T01:25:38.021Z,0
2017-05-02T01:26:18.474Z,0
2017-05-02T01:26:58.921Z,0
2017-05-02T01:27:39.318Z,0
2017-05-02T01:28:19.705Z,0
2017-05-02T01:29:00.123Z,0
2017-05-02T01:29:40.543Z,0
2017-05-02T01:30:20.909Z,0
2017-05-02T01:31:01.411Z,0
2017-05-02T01:31:41.772Z,0
2017-05-02T01:32:22.189Z,0
2017-05-02T01:33:02.596Z,0
2017-05-02T01:33:43.007Z,0
2017-05-02T01:34:23.417Z,0
2017-05-02T01:35:04.415Z,0
2017-05-02T01:35:44.955Z,0
2017-05-02T01:36:26.983Z,0
2017-05-02T01:37:07.349Z,0
2017-05-02T01:37:47.742Z,0
2017-05-02T01:38:28.185Z,0
2017-05-02T01:39:10.095Z,0
2017-05-02T02:02:13.787Z,0
2017-05-02T02:02:54.312Z,0
2017-05-02T02:03:35.467Z,0
2017-05-02T02:04:15.876Z,0
2017-05-02T02:04:56.302Z,0
2017-05-02T02:05:36.699Z,0
2017-05-02T02:06:17.087Z,0
2017-05-02T02:06:57.511Z,0
2017-05-02T02:07:37.888Z,0
2017-05-02T02:08:18.278Z,0
2017-05-02T02:08:58.780Z,0
2017-05-02T02:09:39.579Z,0
2017-05-02T02:10:19.983Z,0
2017-05-02T02:11:00.709Z,0
2017-05-02T02:11:41.156Z,0
2017-05-02T02:12:21.548Z,0
2017-05-02T02:13:02.065Z,0
2017-05-02T02:13:43.301Z,0
2017-05-02T02:14:23.673Z,0
2017-05-02T02:15:04.181Z,0
2017-05-02T02:15:44.553Z,0
2017-05-02T02:16:24.990Z,0
2017-05-02T02:17:05.618Z,0
2017-05-02T02:17:46.092Z,0
2017-05-02T02:18:26.497Z,0
2017-05-02T02:19:06.917Z,0
2017-05-02T02:19:49.935Z,0
2017-05-02T02:20:30.295Z,0
2017-05-02T02:21:10.733Z,0
2017-05-02T02:21:51.136Z,0
2017-05-02T02:22:31.521Z,0
2017-05-02T02:23:11.945Z,0
2017-05-02T02:23:52.326Z,0
2017-05-02T02:24:32.933Z,0
2017-05-02T02:25:13.362Z,0
2017-05-02T02:25:53.773Z,0
2017-05-02T02:26:34.150Z,0
2017-05-02T02:27:14.821Z,0
2017-05-02T02:27:55.250Z,0
2017-05-02T02:28:35.648Z,0
2017-05-02T02:29:16.042Z,0
2017-05-02T02:29:56.490Z,0
2017-05-02T02:30:36.900Z,0
2017-05-02T02:31:17.278Z,0
2017-05-02T02:31:58.526Z,0
2017-05-02T02:32:38.936Z,0
2017-05-02T02:33:19.401Z,0
2017-05-02T02:33:59.895Z,0
2017-05-02T02:34:40.289Z,0
2017-05-02T02:35:20.669Z,0
2017-05-02T02:36:01.958Z,0
2017-05-02T02:36:42.945Z,0
2017-05-02T02:37:23.385Z,0
2017-05-02T02:38:03.737Z,0
2017-05-02T02:38:44.185Z,0
2017-05-02T02:39:24.598Z,0
2017-05-02T02:40:05.154Z,0
2017-05-02T02:40:45.528Z,0
2017-05-02T02:41:25.935Z,0
2017-05-02T02:42:07.137Z,0
2017-05-02T02:42:47.781Z,0
2017-05-02T02:43:28.185Z,0
2017-05-02T02:44:09.456Z,0
2017-05-02T02:44:49.890Z,0
2017-05-02T02:45:30.262Z,0
2017-05-02T02:46:10.667Z,0
2017-05-02T02:46:51.051Z,0
2017-05-02T02:47:31.487Z,0
2017-05-02T02:48:11.886Z,0
2017-05-02T02:48:52.331Z,0
2017-05-02T02:49:32.695Z,0
2017-05-02T02:50:13.079Z,0
2017-05-02T02:50:53.512Z,0
2017-05-02T02:51:33.877Z,0
2017-05-02T02:52:14.271Z,0
2017-05-02T02:52:54.709Z,0
2017-05-02T02:53:35.093Z,0
2017-05-02T02:54:15.505Z,0
2017-05-02T02:54:55.893Z,0
2017-05-02T02:55:36.286Z,0
2017-05-02T02:56:17.729Z,0
2017-05-02T02:56:58.202Z,0
2017-05-02T02:57:38.547Z,0
2017-05-02T02:58:18.927Z,0
2017-05-02T02:58:59.365Z,0
2017-05-02T02:59:39.800Z,0
2017-05-02T03:00:20.217Z,0
2017-05-02T03:01:00.603Z,0
2017-05-02T03:01:41.035Z,0
2017-05-02T03:02:21.484Z,0
2017-05-02T03:03:01.843Z,0
2017-05-02T03:03:42.278Z,0
2017-05-02T03:04:22.643Z,0
2017-05-02T03:05:03.044Z,0
2017-05-02T03:05:43.450Z,0
2017-05-02T03:06:23.800Z,0
2017-05-02T03:07:04.231Z,0
2017-05-02T03:07:44.684Z,0
2017-05-02T03:08:25.083Z,0
2017-05-02T03:09:05.484Z,0
2017-05-02T03:09:45.876Z,0
2017-05-02T03:10:26.312Z,0
2017-05-02T03:11:06.720Z,0
2017-05-02T03:11:47.870Z,0
2017-05-02T03:12:28.220Z,0
2017-05-02T03:13:08.690Z,0
2017-05-02T03:13:49.438Z,0
2017-05-02T03:14:29.898Z,0
2017-05-02T03:15:10.399Z,0
2017-05-02T03:15:50.800Z,0
2017-05-02T03:16:31.214Z,0
2017-05-02T03:17:11.897Z,0
2017-05-02T03:17:52.313Z,0
2017-05-02T03:18:33.031Z,0
2017-05-02T03:19:14.640Z,0
2017-05-02T03:19:55.192Z,0
2017-05-02T03:20:35.602Z,0
2017-05-02T03:21:16.019Z,0
2017-05-02T03:21:56.416Z,0
2017-05-02T03:22:37.048Z,0
2017-05-02T03:23:17.346Z,0
2017-05-02T03:23:57.887Z,0
2017-05-02T03:24:38.899Z,0
2017-05-02T03:25:19.324Z,0
2017-05-02T03:25:59.840Z,0
2017-05-02T03:26:40.664Z,0
2017-05-02T03:27:20.862Z,0
2017-05-02T03:28:01.280Z,0
2017-05-02T03:28:41.743Z,0
2017-05-02T03:29:22.138Z,0
2017-05-02T03:30:02.582Z,0
2017-05-02T03:30:45.433Z,0
2017-05-02T03:31:25.804Z,0
2017-05-02T03:32:06.206Z,0
2017-05-02T03:32:47.598Z,0
2017-05-02T03:33:27.970Z,0
2017-05-02T03:34:08.372Z,0
2017-05-02T03:34:48.874Z,0
2017-05-02T03:35:29.306Z,0
2017-05-02T03:36:09.688Z,0
2017-05-02T03:36:50.058Z,0
2017-05-02T03:37:30.489Z,0
2017-05-02T03:38:10.916Z,0
2017-05-02T03:38:51.358Z,4
2017-05-02T03:39:31.708Z,4
2017-05-02T03:40:12.191Z,4
2017-05-02T03:40:53.191Z,0
2017-05-02T03:41:33.601Z,4
2017-05-02T03:42:15.527Z,4
2017-05-02T03:42:56.520Z,4
2017-05-02T03:43:37.044Z,4
2017-05-02T03:44:17.426Z,4
2017-05-02T03:44:59.030Z,4
2017-05-02T03:45:39.408Z,8
2017-05-02T03:46:19.843Z,8
2017-05-02T03:47:00.275Z,8
2017-05-02T03:47:40.726Z,8
2017-05-02T03:48:21.184Z,4
2017-05-02T03:49:01.616Z,8
2017-05-02T03:49:42.099Z,8
2017-05-02T03:50:22.461Z,8
2017-05-02T03:51:02.888Z,12
2017-05-02T03:51:43.308Z,12
2017-05-02T03:52:23.698Z,12
2017-05-02T03:53:04.606Z,12
2017-05-02T03:53:45.593Z,16
2017-05-02T03:54:26.071Z,12
2017-05-02T03:55:06.512Z,16
2017-05-02T03:55:46.920Z,16
2017-05-02T03:56:27.413Z,16
2017-05-02T03:57:07.759Z,20
2017-05-02T03:57:48.198Z,20
2017-05-02T03:58:28.564Z,20
2017-05-02T03:59:08.968Z,24
2017-05-02T03:59:49.381Z,24
2017-05-02T04:00:29.781Z,24
2017-05-02T04:01:10.283Z,28
2017-05-02T04:01:50.692Z,28
2017-05-02T04:02:31.089Z,28
2017-05-02T04:03:12.383Z,36
2017-05-02T04:03:52.808Z,36
2017-05-02T04:04:33.188Z,36
2017-05-02T04:05:13.588Z,40
2017-05-02T04:05:55.019Z,44
2017-05-02T04:06:37.250Z,48
2017-05-02T04:07:18.494Z,52
2017-05-02T04:07:58.886Z,60
2017-05-02T04:08:39.309Z,60
2017-05-02T04:09:19.759Z,64
2017-05-02T04:10:00.168Z,68
2017-05-02T04:10:40.544Z,72
2017-05-02T04:11:20.969Z,72
2017-05-02T04:12:01.370Z,80
2017-05-02T04:12:41.765Z,88
2017-05-02T04:13:22.191Z,96
2017-05-02T04:14:03.388Z,100
2017-05-02T04:14:43.814Z,104
2017-05-02T04:15:24.221Z,108
2017-05-02T04:16:04.751Z,112
2017-05-02T04:16:45.067Z,116
2017-05-02T04:17:25.468Z,124
2017-05-02T04:18:05.909Z,132
2017-05-02T04:18:46.342Z,140
2017-05-02T04:19:26.809Z,144
2017-05-02T04:20:07.229Z,152
2017-05-02T04:20:48.188Z,156
2017-05-02T04:21:28.637Z,164
2017-05-02T04:22:09.819Z,160
2017-05-02T04:22:50.246Z,164
2017-05-02T04:23:31.613Z,168
2017-05-02T04:24:12.051Z,180
2017-05-02T04:24:52.528Z,184
2017-05-02T04:25:32.944Z,192
2017-05-02T04:26:13.315Z,204
2017-05-02T04:26:53.776Z,212
2017-05-02T04:27:34.152Z,216
2017-05-02T04:28:14.580Z,224
2017-05-02T04:28:54.934Z,228
2017-05-02T04:29:35.396Z,228
2017-05-02T04:30:15.769Z,224
2017-05-02T04:30:56.219Z,228
2017-05-02T04:31:36.604Z,228
2017-05-02T04:32:18.801Z,240
2017-05-02T04:32:59.166Z,248
2017-05-02T04:33:40.165Z,256
2017-05-02T04:34:20.553Z,268
2017-05-02T04:35:00.938Z,268
2017-05-02T04:35:41.343Z,268
2017-05-02T04:36:21.705Z,272
2017-05-02T04:37:02.124Z,284
2017-05-02T04:37:42.644Z,280
2017-05-02T04:38:22.961Z,288
2017-05-02T04:39:03.376Z,296
2017-05-02T04:39:43.839Z,304
2017-05-02T04:40:24.221Z,324
2017-05-02T04:41:04.717Z,336
2017-05-02T04:41:45.102Z,336
2017-05-02T04:42:25.523Z,348
2017-05-02T04:43:05.886Z,364
2017-05-02T04:43:46.307Z,368
2017-05-02T04:44:26.759Z,388
2017-05-02T04:45:07.138Z,400
2017-05-02T04:45:47.565Z,392
2017-05-02T04:46:27.979Z,412
2017-05-02T04:47:08.374Z,436
2017-05-02T04:47:48.809Z,456
2017-05-02T04:48:29.167Z,480
2017-05-02T04:49:10.492Z,488
2017-05-02T04:49:50.847Z,496
2017-05-02T04:50:31.277Z,504
2017-05-02T04:51:11.683Z,532
2017-05-02T04:51:52.081Z,564
2017-05-02T04:52:32.667Z,604
2017-05-02T04:53:13.077Z,652
2017-05-02T04:53:53.469Z,700
2017-05-02T04:54:34.429Z,728
2017-05-02T04:55:15.171Z,744
2017-05-02T04:55:55.578Z,784
2017-05-02T04:56:35.977Z,832
2017-05-02T04:57:16.404Z,864
2017-05-02T04:57:57.705Z,860
2017-05-02T04:58:38.097Z,888
2017-05-02T04:59:18.496Z,928
2017-05-02T05:00:00.929Z,972
2017-05-02T05:00:41.285Z,1024
2017-05-02T05:01:21.702Z,1048
2017-05-02T05:02:02.119Z,1036
2017-05-02T05:02:42.549Z,988
2017-05-02T05:03:23.018Z,952
2017-05-02T05:04:03.374Z,932
2017-05-02T05:04:43.797Z,940
2017-05-02T05:05:24.234Z,904
2017-05-02T05:06:04.585Z,876
2017-05-02T05:06:47.738Z,860
2017-05-02T05:07:28.127Z,872
2017-05-02T05:08:08.512Z,896
2017-05-02T05:08:48.952Z,924
2017-05-02T05:09:29.384Z,944
2017-05-02T05:10:09.760Z,976
2017-05-02T05:10:50.147Z,1020
2017-05-02T05:11:30.628Z,1028
2017-05-02T05:12:11.038Z,1008
2017-05-02T05:12:51.451Z,988
2017-05-02T05:13:31.841Z,1004
2017-05-02T05:14:12.291Z,1020
2017-05-02T05:14:53.624Z,1020
2017-05-02T05:15:34.032Z,1004
2017-05-02T05:16:15.146Z,976
2017-05-02T05:16:55.579Z,924
2017-05-02T05:17:35.982Z,864
2017-05-02T05:18:16.437Z,780
2017-05-02T05:18:56.821Z,672
2017-05-02T05:19:38.128Z,672
2017-05-02T05:20:18.582Z,712
2017-05-02T05:20:58.998Z,716
2017-05-02T05:21:39.400Z,728
2017-05-02T05:22:19.825Z,748
2017-05-02T05:23:00.207Z,780
2017-05-02T05:23:41.126Z,800
2017-05-02T05:24:21.518Z,896
2017-05-02T05:25:01.988Z,896
2017-05-02T05:25:42.403Z,844
2017-05-02T05:26:22.834Z,768
2017-05-02T05:27:03.261Z,648
2017-05-02T05:27:43.648Z,568
2017-05-02T05:28:24.110Z,516
2017-05-02T05:29:05.338Z,504
2017-05-02T05:29:45.827Z,564
2017-05-02T05:30:27.157Z,604
2017-05-02T05:31:08.473Z,572
2017-05-02T05:31:48.988Z,552
2017-05-02T05:32:30.177Z,552
2017-05-02T05:33:10.524Z,620
2017-05-02T05:33:50.955Z,668
2017-05-02T05:34:31.384Z,616
2017-05-02T05:35:12.749Z,672
2017-05-02T05:35:53.137Z,800
2017-05-02T05:36:34.415Z,932
2017-05-02T05:37:16.381Z,1032
2017-05-02T05:37:57.695Z,1064
2017-05-02T05:38:38.086Z,1040
2017-05-02T05:39:18.452Z,996
2017-05-02T05:39:58.939Z,932
2017-05-02T05:40:39.312Z,912
2017-05-02T05:41:19.735Z,960
2017-05-02T05:42:00.152Z,756
2017-05-02T05:42:40.547Z,592
2017-05-02T05:43:21.694Z,568
2017-05-02T05:44:03.177Z,676
2017-05-02T05:44:44.340Z,772
2017-05-02T05:45:24.719Z,912
2017-05-02T05:46:05.131Z,980
2017-05-02T05:46:45.578Z,1148
2017-05-02T05:47:26.776Z,1460
2017-05-02T05:48:07.293Z,1656
2017-05-02T05:48:47.676Z,1836
2017-05-02T05:49:28.771Z,2044
2017-05-02T05:50:10.144Z,2216
2017-05-02T05:50:50.575Z,2268
2017-05-02T05:51:31.391Z,2268
2017-05-02T05:52:11.755Z,2188
2017-05-02T05:52:52.176Z,2116
2017-05-02T05:53:32.543Z,1944
2017-05-02T05:54:13.490Z,1732
2017-05-02T05:54:54.058Z,1500
2017-05-02T05:55:34.494Z,1372
2017-05-02T05:56:14.981Z,1276
2017-05-02T05:56:55.616Z,1096
2017-05-02T05:57:35.979Z,984
2017-05-02T05:58:17.253Z,1144
2017-05-02T05:58:57.638Z,1060
2017-05-02T05:59:38.085Z,1056
2017-05-02T06:00:19.297Z,1276
2017-05-02T06:00:59.661Z,1412
2017-05-02T06:01:41.086Z,1568
2017-05-02T06:02:21.522Z,1504
2017-05-02T06:03:02.570Z,1756
2017-05-02T06:03:43.673Z,1840
2017-05-02T06:04:24.040Z,1640
2017-05-02T06:05:06.252Z,1504
2017-05-02T06:05:46.639Z,1304
2017-05-02T06:06:28.915Z,1160
2017-05-02T06:07:09.338Z,1296
2017-05-02T06:07:49.725Z,1628
2017-05-02T06:08:30.752Z,1844
2017-05-02T06:09:11.171Z,1992
2017-05-02T06:09:51.591Z,2196
2017-05-02T06:10:32.096Z,2224
2017-05-02T06:11:13.233Z,2192
2017-05-02T06:11:53.654Z,2308
2017-05-02T06:12:34.026Z,2304
2017-05-02T06:13:14.987Z,2252
2017-05-02T06:13:55.437Z,2216
2017-05-02T06:14:35.845Z,2188
2017-05-02T06:15:16.233Z,2016
2017-05-02T06:15:57.416Z,2032
2017-05-02T06:16:37.891Z,2088
2017-05-02T06:17:18.302Z,2272
2017-05-02T06:17:58.749Z,2504
2017-05-02T06:18:39.135Z,2664
2017-05-02T06:19:19.551Z,2580
2017-05-02T06:20:00.719Z,2448
2017-05-02T06:20:41.797Z,2048
2017-05-02T06:21:22.226Z,1712
2017-05-02T06:22:02.632Z,1520
2017-05-02T06:22:43.084Z,1628
2017-05-02T06:23:23.502Z,1564
2017-05-02T06:24:03.952Z,1452
2017-05-02T06:24:44.330Z,1300
2017-05-02T06:25:24.775Z,1152
2017-05-02T06:26:05.137Z,1304
2017-05-02T06:26:46.313Z,1496
2017-05-02T06:27:26.680Z,1744
2017-05-02T06:28:07.147Z,1676
2017-05-02T06:28:47.564Z,1696
2017-05-02T06:29:27.997Z,1956
2017-05-02T06:30:08.421Z,2164
2017-05-02T06:30:48.873Z,2056
2017-05-02T06:31:30.137Z,2136
2017-05-02T06:32:10.578Z,2080
2017-05-02T06:32:50.982Z,1940
2017-05-02T06:33:31.388Z,1852
2017-05-02T06:34:11.722Z,2140
2017-05-02T06:34:52.132Z,2292
2017-05-02T06:35:32.593Z,2204
2017-05-02T06:36:13.008Z,2064
2017-05-02T06:36:53.483Z,1976
2017-05-02T06:37:33.867Z,2044
2017-05-02T06:38:14.270Z,2024
2017-05-02T06:38:54.731Z,1764
2017-05-02T06:39:36.725Z,1996
2017-05-02T06:40:17.107Z,1988
2017-05-02T06:40:58.161Z,1856
2017-05-02T06:41:39.392Z,1860
2017-05-02T06:42:19.824Z,1924
2017-05-02T06:43:00.242Z,2064
2017-05-02T06:43:41.468Z,2088
2017-05-02T06:44:21.917Z,2104
2017-05-02T06:45:02.353Z,2012
2017-05-02T06:45:42.706Z,1832
2017-05-02T06:46:23.124Z,1920
2017-05-02T06:47:03.522Z,2060
2017-05-02T06:47:43.964Z,2224
2017-05-02T06:48:24.393Z,2116
2017-05-02T06:49:04.760Z,2444
2017-05-02T06:49:45.208Z,2540
2017-05-02T06:50:25.658Z,2736
2017-05-02T06:51:06.212Z,2324
2017-05-02T06:51:47.477Z,2480
2017-05-02T06:52:27.665Z,2304
2017-05-02T06:53:08.061Z,2444
2017-05-02T06:53:48.468Z,2564
2017-05-02T06:54:28.926Z,2560
2017-05-02T06:55:09.358Z,2512
2017-05-02T06:55:49.805Z,2276
2017-05-02T06:56:30.217Z,2188
2017-05-02T06:58:43.821Z,2388
2017-05-02T06:59:24.193Z,2728
2017-05-02T07:00:04.573Z,2764
2017-05-02T07:00:44.977Z,2704
2017-05-02T07:01:25.368Z,2640
2017-05-02T07:02:05.729Z,2396
2017-05-02T07:02:46.123Z,2092
2017-05-02T07:03:26.530Z,1976
2017-05-02T07:04:06.912Z,1832
2017-05-02T07:04:47.310Z,1848
2017-05-02T07:05:27.702Z,1956
2017-05-02T07:06:08.124Z,1964
2017-05-02T07:06:48.538Z,1920
2017-05-02T07:07:28.956Z,2012
2017-05-02T07:08:09.394Z,2156
2017-05-02T07:08:49.810Z,2356
2017-05-02T07:09:30.266Z,2180
2017-05-02T07:10:10.649Z,2160
2017-05-02T07:10:51.039Z,1876
2017-05-02T07:11:31.435Z,1712
2017-05-02T07:12:11.833Z,1712
2017-05-02T07:12:53.123Z,1932
2017-05-02T07:13:33.561Z,1952
2017-05-02T07:14:13.986Z,2016
2017-05-02T07:14:54.463Z,1900
2017-05-02T07:15:34.832Z,1904
2017-05-02T07:16:18.155Z,1852
2017-05-02T07:16:58.562Z,2036
2017-05-02T07:17:38.961Z,2172
2017-05-02T07:18:19.368Z,2300
2017-05-02T07:19:00.358Z,2080
2017-05-02T07:19:40.806Z,2284
2017-05-02T07:20:21.234Z,2364
2017-05-02T07:21:01.786Z,2492
2017-05-02T07:21:43.980Z,2400
2017-05-02T07:22:24.428Z,2436
2017-05-02T07:23:04.806Z,2468
2017-05-02T07:23:45.281Z,2288
2017-05-02T07:24:25.718Z,2140
2017-05-02T07:25:06.111Z,2144
2017-05-02T07:25:46.615Z,2400
2017-05-02T07:26:27.041Z,2432
2017-05-02T07:27:07.540Z,2332
2017-05-02T07:27:47.971Z,2268
2017-05-02T07:28:28.371Z,2352
2017-05-02T07:29:08.853Z,2464
2017-05-02T07:29:49.271Z,2720
2017-05-02T07:30:29.677Z,2664
2017-05-02T07:31:10.103Z,2516
2017-05-02T07:31:50.502Z,2580
2017-05-02T07:32:30.936Z,2884
2017-05-02T07:33:11.303Z,2692
2017-05-02T07:33:51.737Z,2216
2017-05-02T07:34:32.155Z,2308
2017-05-02T07:35:12.542Z,2376
2017-05-02T07:35:52.945Z,2548
2017-05-02T07:36:33.325Z,2484
2017-05-02T07:37:15.488Z,2868
2017-05-02T07:37:56.055Z,2912
2017-05-02T07:38:39.441Z,2764
2017-05-02T07:39:18.440Z,2744
2017-05-02T07:39:59.415Z,2336
2017-05-02T07:40:41.161Z,2080
2017-05-02T07:41:22.184Z,1960
2017-05-02T07:42:02.600Z,2144
2017-05-02T07:42:43.564Z,2252
2017-05-02T07:43:23.954Z,2308
2017-05-02T07:44:05.203Z,2192
2017-05-02T07:46:33.267Z,2284
2017-05-02T07:48:47.893Z,2960
2017-05-02T07:49:28.486Z,2724
2017-05-02T07:50:09.548Z,2720
2017-05-02T07:53:06.273Z,2760
2017-05-02T07:55:21.588Z,3152
2017-05-02T07:56:02.395Z,3412
2017-05-02T07:56:42.846Z,3076
2017-05-02T07:57:26.000Z,3028
2017-05-02T07:58:07.672Z,2804
2017-05-02T07:58:48.121Z,2424
2017-05-02T07:59:29.237Z,2452
2017-05-02T08:00:09.600Z,2720
2017-05-02T08:00:50.617Z,2568
2017-05-02T08:01:31.658Z,2384
2017-05-02T08:02:14.539Z,2648
2017-05-02T08:02:55.538Z,2828
2017-05-02T08:03:36.428Z,2708
2017-05-02T08:04:16.813Z,2612
2017-05-02T08:04:57.245Z,2644
2017-05-02T08:05:37.685Z,2624
2017-05-02T08:06:18.971Z,2524
2017-05-02T08:06:59.395Z,3004
2017-05-02T08:07:40.299Z,3116
2017-05-02T08:08:20.764Z,3392
2017-05-02T08:09:02.700Z,3708
2017-05-02T08:09:43.069Z,3720
2017-05-02T08:10:23.551Z,4144
2017-05-02T08:11:03.958Z,4408
2017-05-02T08:11:44.411Z,5236
2017-05-02T08:12:25.647Z,5796
2017-05-02T08:13:06.072Z,5688
2017-05-02T08:13:46.965Z,4760
2017-05-02T08:14:27.389Z,4928
2017-05-02T08:15:09.672Z,4464
2017-05-02T08:15:50.093Z,5084
2017-05-02T08:16:32.048Z,4688
2017-05-02T08:17:12.442Z,4048
2017-05-02T08:17:54.504Z,3656
2017-05-02T08:18:34.913Z,3424
2017-05-02T08:20:50.071Z,4652
2017-05-02T08:21:31.456Z,4332
2017-05-02T08:22:11.851Z,3948
2017-05-02T08:22:53.081Z,4272
2017-05-02T08:23:34.295Z,4028
2017-05-02T08:24:15.424Z,4288
2017-05-02T08:24:56.732Z,4368
2017-05-02T08:25:37.224Z,3888
2017-05-02T08:26:18.649Z,4132
2017-05-02T08:26:58.966Z,4316
2017-05-02T08:27:39.420Z,4764
2017-05-02T08:28:19.785Z,4592
2017-05-02T08:29:00.252Z,4112
2017-05-02T08:29:40.713Z,4020
2017-05-02T08:30:21.143Z,3776
2017-05-02T08:31:02.245Z,4148
2017-05-02T08:31:42.678Z,4344
2017-05-02T08:32:23.598Z,4796
2017-05-02T08:33:04.717Z,4592
2017-05-02T08:33:45.140Z,4156
2017-05-02T08:34:26.077Z,3744
2017-05-02T08:35:07.474Z,3900
2017-05-02T08:35:48.553Z,3708
2017-05-02T08:36:28.957Z,3836
2017-05-02T08:37:09.394Z,3484
2017-05-02T08:37:49.810Z,3856
2017-05-02T08:38:30.260Z,3708
2017-05-02T08:39:10.720Z,3948
2017-05-02T08:39:51.194Z,3920
2017-05-02T08:40:32.219Z,3872
2017-05-02T08:41:14.080Z,3900
2017-05-02T08:41:54.547Z,4172
2017-05-02T08:42:36.701Z,3656
2017-05-02T08:43:17.218Z,3724
2017-05-02T08:43:57.667Z,3696
2017-05-02T08:44:38.027Z,3772
2017-05-02T08:45:18.488Z,3912
2017-05-02T08:45:59.909Z,4068
2017-05-02T08:46:40.865Z,3756
2017-05-02T08:47:21.270Z,3252
2017-05-02T08:48:01.663Z,3116
2017-05-02T08:48:42.097Z,3760
2017-05-02T08:49:23.247Z,4140
2017-05-02T08:50:03.630Z,3900
2017-05-02T08:50:44.923Z,3104
2017-05-02T08:51:25.363Z,2712
2017-05-02T08:52:05.746Z,3364
2017-05-02T08:52:46.179Z,3504
2017-05-02T08:53:26.602Z,3484
2017-05-02T08:54:08.568Z,3800
2017-05-02T08:54:48.996Z,4552
2017-05-02T08:55:29.451Z,4584
2017-05-02T08:56:09.868Z,5088
2017-05-02T08:56:50.318Z,4032
2017-05-02T08:57:31.581Z,4212
2017-05-02T08:58:12.061Z,4452
2017-05-02T08:58:52.508Z,4008
2017-05-02T08:59:32.915Z,3960
2017-05-02T09:00:13.284Z,4236
2017-05-02T09:00:53.702Z,3988
2017-05-02T09:01:34.176Z,3912
2017-05-02T09:02:15.136Z,3720
2017-05-02T09:02:56.176Z,4012
2017-05-02T09:03:36.625Z,4024
2017-05-02T09:04:18.609Z,3560
2017-05-02T09:04:59.595Z,3132
2017-05-02T09:05:40.024Z,3376
2017-05-02T09:06:20.403Z,3280
2017-05-02T09:07:00.782Z,3376
2017-05-02T09:07:42.613Z,3240
2017-05-02T09:08:25.943Z,3472
2017-05-02T09:09:06.412Z,3196
2017-05-02T09:09:48.335Z,3088
2017-05-02T09:10:28.809Z,2912
2017-05-02T09:34:24.956Z,3344
2017-05-02T09:35:07.233Z,3232
2017-05-02T09:35:47.626Z,3040
2017-05-02T09:36:28.145Z,2852
2017-05-02T09:37:08.564Z,2664
2017-05-02T09:37:51.486Z,2880
2017-05-02T09:38:32.885Z,2860
2017-05-02T09:39:13.896Z,2848
2017-05-02T09:39:54.281Z,2904
2017-05-02T09:40:39.266Z,2888
2017-05-02T09:41:19.631Z,2868
2017-05-02T09:42:01.782Z,2984
2017-05-02T09:42:42.968Z,2952
2017-05-02T09:43:24.304Z,3216
2017-05-02T09:44:05.486Z,3356
2017-05-02T09:44:45.936Z,3088
2017-05-02T09:45:27.258Z,3108
2017-05-02T09:46:07.649Z,3008
2017-05-02T09:46:48.095Z,2952
2017-05-02T09:47:32.114Z,2896
2017-05-02T09:48:12.558Z,3416
2017-05-02T09:48:53.774Z,3192
2017-05-02T09:49:34.837Z,2980
2017-05-02T09:50:16.768Z,3044
2017-05-02T09:50:59.812Z,3444
2017-05-02T09:51:43.246Z,3428
2017-05-02T09:52:23.657Z,3704
2017-05-02T09:53:03.996Z,4188
2017-05-02T09:53:44.449Z,4576
2017-05-02T09:54:24.856Z,4428
2017-05-02T09:55:05.828Z,4584
2017-05-02T09:55:47.721Z,4104
2017-05-02T09:56:28.166Z,4184
2017-05-02T09:57:09.533Z,3880
2017-05-02T09:57:50.759Z,4060
2017-05-02T09:58:31.193Z,4436
2017-05-02T09:59:11.592Z,4532
2017-05-02T09:59:53.012Z,5376
2017-05-02T10:00:34.252Z,5580
2017-05-02T10:01:15.228Z,5732
2017-05-02T10:01:55.666Z,5820
2017-05-02T10:02:36.092Z,5872
2017-05-02T10:03:16.454Z,5860
2017-05-02T10:03:56.930Z,6472
2017-05-02T10:04:37.372Z,6800
2017-05-02T10:05:18.484Z,6472
2017-05-02T10:05:59.593Z,6356
2017-05-02T10:06:40.082Z,6024
2017-05-02T10:07:20.490Z,7300
2017-05-02T10:08:01.480Z,7952
2017-05-02T10:08:42.914Z,7852
2017-05-02T10:09:23.321Z,6936
2017-05-02T10:10:03.686Z,6512
2017-05-02T10:10:46.906Z,5808
2017-05-02T10:11:27.284Z,5140
2017-05-02T10:12:07.680Z,4888
2017-05-02T10:12:48.131Z,4880
2017-05-02T10:13:28.547Z,4764
2017-05-02T10:14:09.915Z,4284
2017-05-02T10:14:50.346Z,3784
2017-05-02T10:17:19.179Z,3360
2017-05-02T10:17:59.877Z,3768
2017-05-02T10:18:40.987Z,3884
2017-05-02T10:19:21.408Z,4124
2017-05-02T10:20:02.480Z,3764
2017-05-02T10:20:43.453Z,4208
2017-05-02T10:21:23.779Z,4348
2017-05-02T10:22:04.204Z,3760
2017-05-02T10:24:18.530Z,3472
2017-05-02T10:24:58.967Z,3404
2017-05-02T10:25:39.410Z,3056
2017-05-02T10:26:19.764Z,3040